sensor_id;sensor_type;location;lat;lon;timestamp;temperature;humidity
10660;DHT22;5378;53.206;13.316;2023-01-28T00:00:23;3.40;99.90
10660;DHT22;5378;53.206;13.316;2023-01-28T00:03:10;3.30;99.90
10660;DHT22;5378;53.206;13.316;2023-01-28T00:06:02;3.20;99.90
10660;DHT22;5378;53.206;13.316;2023-01-28T00:08:50;3.10;99.90
10660;DHT22;5378;53.206;13.316;2023-01-28T00:11:37;3.10;99.90
10660;DHT22;5378;53.206;13.316;2023-01-28T00:14:24;3.00;99.90
10660;DHT22;5378;53.206;13.316;2023-01-28T00:17:11;2.90;99.90
10660;DHT22;5378;53.206;13.316;2023-01-28T00:19:58;2.80;99.90
10660;DHT22;5378;53.206;13.316;2023-01-28T00:22:47;2.80;99.90
10660;DHT22;5378;53.206;13.316;2023-01-28T00:25:36;2.80;99.90
10660;DHT22;5378;53.206;13.316;2023-01-28T00:28:24;2.90;99.90
10660;DHT22;5378;53.206;13.316;2023-01-28T00:31:14;3.00;99.90
10660;DHT22;5378;53.206;13.316;2023-01-28T00:34:01;3.00;99.90
10660;DHT22;5378;53.206;13.316;2023-01-28T00:36:50;3.20;99.90
10660;DHT22;5378;53.206;13.316;2023-01-28T00:39:43;3.20;99.90
10660;DHT22;5378;53.206;13.316;2023-01-28T00:42:31;3.20;99.90
10660;DHT22;5378;53.206;13.316;2023-01-28T00:45:18;3.00;99.90
10660;DHT22;5378;53.206;13.316;2023-01-28T00:48:05;3.10;99.90
10660;DHT22;5378;53.206;13.316;2023-01-28T00:50:53;3.10;99.90
10660;DHT22;5378;53.206;13.316;2023-01-28T00:53:40;3.10;99.90
10660;DHT22;5378;53.206;13.316;2023-01-28T00:56:29;3.00;99.90
10660;DHT22;5378;53.206;13.316;2023-01-28T00:59:16;3.10;99.90
10660;DHT22;5378;53.206;13.316;2023-01-28T01:02:05;3.10;99.90
10660;DHT22;5378;53.206;13.316;2023-01-28T01:04:57;3.10;99.90
10660;DHT22;5378;53.206;13.316;2023-01-28T01:07:45;3.20;99.90
10660;DHT22;5378;53.206;13.316;2023-01-28T01:10:32;3.30;99.90
10660;DHT22;5378;53.206;13.316;2023-01-28T01:13:21;3.10;99.90
10660;DHT22;5378;53.206;13.316;2023-01-28T01:16:11;3.00;99.90
10660;DHT22;5378;53.206;13.316;2023-01-28T01:18:58;3.00;99.90
10660;DHT22;5378;53.206;13.316;2023-01-28T01:21:46;3.00;99.90
10660;DHT22;5378;53.206;13.316;2023-01-28T01:24:35;2.90;99.90
10660;DHT22;5378;53.206;13.316;2023-01-28T01:27:22;3.00;99.90
10660;DHT22;5378;53.206;13.316;2023-01-28T01:30:11;3.00;99.90
10660;DHT22;5378;53.206;13.316;2023-01-28T01:32:58;3.00;99.90
10660;DHT22;5378;53.206;13.316;2023-01-28T01:35:52;3.20;99.90
10660;DHT22;5378;53.206;13.316;2023-01-28T01:38:39;3.20;99.90
10660;DHT22;5378;53.206;13.316;2023-01-28T01:41:29;3.30;99.90
10660;DHT22;5378;53.206;13.316;2023-01-28T01:47:44;3.30;99.90
10660;DHT22;5378;53.206;13.316;2023-01-28T01:50:35;3.40;99.90
10660;DHT22;5378;53.206;13.316;2023-01-28T01:53:22;3.40;99.90
10660;DHT22;5378;53.206;13.316;2023-01-28T01:56:13;3.40;99.90
10660;DHT22;5378;53.206;13.316;2023-01-28T01:59:02;3.40;99.90
10660;DHT22;5378;53.206;13.316;2023-01-28T02:01:51;3.40;99.90
10660;DHT22;5378;53.206;13.316;2023-01-28T02:04:42;3.30;99.90
10660;DHT22;5378;53.206;13.316;2023-01-28T02:07:34;3.30;99.90
10660;DHT22;5378;53.206;13.316;2023-01-28T02:10:22;3.30;99.90
10660;DHT22;5378;53.206;13.316;2023-01-28T02:13:11;3.30;99.90
10660;DHT22;5378;53.206;13.316;2023-01-28T02:15:59;3.30;99.90
10660;DHT22;5378;53.206;13.316;2023-01-28T02:18:47;3.30;99.90
10660;DHT22;5378;53.206;13.316;2023-01-28T02:22:00;3.20;99.90
10660;DHT22;5378;53.206;13.316;2023-01-28T02:25:10;3.20;99.90
10660;DHT22;5378;53.206;13.316;2023-01-28T02:28:17;3.30;99.90
10660;DHT22;5378;53.206;13.316;2023-01-28T02:31:12;3.30;99.90
10660;DHT22;5378;53.206;13.316;2023-01-28T02:34:05;3.30;99.90
10660;DHT22;5378;53.206;13.316;2023-01-28T02:36:56;3.20;99.90
10660;DHT22;5378;53.206;13.316;2023-01-28T02:39:47;3.30;99.90
10660;DHT22;5378;53.206;13.316;2023-01-28T02:42:36;3.30;99.90
10660;DHT22;5378;53.206;13.316;2023-01-28T02:45:27;3.30;99.90
10660;DHT22;5378;53.206;13.316;2023-01-28T02:48:35;3.20;99.90
10660;DHT22;5378;53.206;13.316;2023-01-28T02:51:31;3.10;99.90
10660;DHT22;5378;53.206;13.316;2023-01-28T02:54:29;3.20;99.90
10660;DHT22;5378;53.206;13.316;2023-01-28T02:57:29;3.30;99.90
10660;DHT22;5378;53.206;13.316;2023-01-28T03:00:22;3.20;99.90
10660;DHT22;5378;53.206;13.316;2023-01-28T03:03:16;3.30;99.90
10660;DHT22;5378;53.206;13.316;2023-01-28T03:06:08;3.20;99.90
10660;DHT22;5378;53.206;13.316;2023-01-28T03:08:58;3.00;99.90
10660;DHT22;5378;53.206;13.316;2023-01-28T03:12:06;2.90;99.90
10660;DHT22;5378;53.206;13.316;2023-01-28T03:15:14;2.90;99.90
10660;DHT22;5378;53.206;13.316;2023-01-28T03:18:22;3.10;99.90
10660;DHT22;5378;53.206;13.316;2023-01-28T03:21:31;3.10;99.90
10660;DHT22;5378;53.206;13.316;2023-01-28T03:24:43;3.10;99.90
10660;DHT22;5378;53.206;13.316;2023-01-28T03:27:53;3.10;99.90
10660;DHT22;5378;53.206;13.316;2023-01-28T03:31:05;3.20;99.90
10660;DHT22;5378;53.206;13.316;2023-01-28T03:34:16;3.30;99.90
10660;DHT22;5378;53.206;13.316;2023-01-28T03:37:21;3.40;99.90
10660;DHT22;5378;53.206;13.316;2023-01-28T03:40:20;3.30;99.90
10660;DHT22;5378;53.206;13.316;2023-01-28T03:43:08;3.30;99.90
10660;DHT22;5378;53.206;13.316;2023-01-28T03:45:55;3.20;99.90
10660;DHT22;5378;53.206;13.316;2023-01-28T03:48:43;3.00;99.90
10660;DHT22;5378;53.206;13.316;2023-01-28T03:51:33;2.90;99.90
10660;DHT22;5378;53.206;13.316;2023-01-28T03:54:20;2.90;99.90
10660;DHT22;5378;53.206;13.316;2023-01-28T03:57:07;3.00;99.90
10660;DHT22;5378;53.206;13.316;2023-01-28T03:59:54;3.10;99.90
10660;DHT22;5378;53.206;13.316;2023-01-28T04:02:41;3.10;99.90
10660;DHT22;5378;53.206;13.316;2023-01-28T04:05:32;3.20;99.90
10660;DHT22;5378;53.206;13.316;2023-01-28T04:08:22;3.20;99.90
10660;DHT22;5378;53.206;13.316;2023-01-28T04:11:29;3.30;99.90
10660;DHT22;5378;53.206;13.316;2023-01-28T04:14:19;3.40;99.90
10660;DHT22;5378;53.206;13.316;2023-01-28T04:17:12;3.50;99.90
10660;DHT22;5378;53.206;13.316;2023-01-28T04:20:01;3.40;99.90
10660;DHT22;5378;53.206;13.316;2023-01-28T04:22:48;3.50;99.90
10660;DHT22;5378;53.206;13.316;2023-01-28T04:25:38;3.50;99.90
10660;DHT22;5378;53.206;13.316;2023-01-28T04:28:27;3.40;99.90
10660;DHT22;5378;53.206;13.316;2023-01-28T04:31:14;3.40;99.90
10660;DHT22;5378;53.206;13.316;2023-01-28T04:34:15;3.40;99.90
10660;DHT22;5378;53.206;13.316;2023-01-28T04:37:21;3.40;99.90
10660;DHT22;5378;53.206;13.316;2023-01-28T04:40:14;3.50;99.90
10660;DHT22;5378;53.206;13.316;2023-01-28T04:43:12;3.50;99.90
10660;DHT22;5378;53.206;13.316;2023-01-28T04:46:08;3.50;99.90
10660;DHT22;5378;53.206;13.316;2023-01-28T04:49:01;3.50;99.90
10660;DHT22;5378;53.206;13.316;2023-01-28T04:52:05;3.40;99.90
10660;DHT22;5378;53.206;13.316;2023-01-28T04:55:13;3.40;99.90
10660;DHT22;5378;53.206;13.316;2023-01-28T04:58:00;3.30;99.90
10660;DHT22;5378;53.206;13.316;2023-01-28T05:00:54;3.40;99.90
10660;DHT22;5378;53.206;13.316;2023-01-28T05:03:42;3.40;99.90
10660;DHT22;5378;53.206;13.316;2023-01-28T05:06:37;3.30;99.90
10660;DHT22;5378;53.206;13.316;2023-01-28T05:09:32;3.30;99.90
10660;DHT22;5378;53.206;13.316;2023-01-28T05:12:19;3.30;99.90
10660;DHT22;5378;53.206;13.316;2023-01-28T05:15:07;3.40;99.90
10660;DHT22;5378;53.206;13.316;2023-01-28T05:17:56;3.40;99.90
10660;DHT22;5378;53.206;13.316;2023-01-28T05:20:48;3.30;99.90
10660;DHT22;5378;53.206;13.316;2023-01-28T05:23:35;3.30;99.90
10660;DHT22;5378;53.206;13.316;2023-01-28T05:26:22;3.50;99.90
10660;DHT22;5378;53.206;13.316;2023-01-28T05:29:10;3.40;99.90
10660;DHT22;5378;53.206;13.316;2023-01-28T05:31:58;3.40;99.90
10660;DHT22;5378;53.206;13.316;2023-01-28T05:34:46;3.40;99.90
10660;DHT22;5378;53.206;13.316;2023-01-28T05:37:33;3.30;99.90
10660;DHT22;5378;53.206;13.316;2023-01-28T05:40:21;3.30;99.90
10660;DHT22;5378;53.206;13.316;2023-01-28T05:43:09;3.30;99.90
10660;DHT22;5378;53.206;13.316;2023-01-28T05:46:05;3.30;99.90
10660;DHT22;5378;53.206;13.316;2023-01-28T05:49:15;3.40;99.90
10660;DHT22;5378;53.206;13.316;2023-01-28T05:52:16;3.50;99.90
10660;DHT22;5378;53.206;13.316;2023-01-28T05:55:04;3.50;99.90
10660;DHT22;5378;53.206;13.316;2023-01-28T05:57:52;3.50;99.90
10660;DHT22;5378;53.206;13.316;2023-01-28T06:00:41;3.50;99.90
10660;DHT22;5378;53.206;13.316;2023-01-28T06:03:29;3.50;99.90
10660;DHT22;5378;53.206;13.316;2023-01-28T06:06:16;3.50;99.90
10660;DHT22;5378;53.206;13.316;2023-01-28T06:09:06;3.40;99.90
10660;DHT22;5378;53.206;13.316;2023-01-28T06:11:53;3.30;99.90
10660;DHT22;5378;53.206;13.316;2023-01-28T06:14:41;3.40;99.90
10660;DHT22;5378;53.206;13.316;2023-01-28T06:17:48;3.30;99.90
10660;DHT22;5378;53.206;13.316;2023-01-28T06:20:44;3.30;99.90
10660;DHT22;5378;53.206;13.316;2023-01-28T06:23:32;3.30;99.90
10660;DHT22;5378;53.206;13.316;2023-01-28T06:26:21;3.30;99.90
10660;DHT22;5378;53.206;13.316;2023-01-28T06:29:09;3.30;99.90
10660;DHT22;5378;53.206;13.316;2023-01-28T06:31:56;3.30;99.90
10660;DHT22;5378;53.206;13.316;2023-01-28T06:34:43;3.30;99.90
10660;DHT22;5378;53.206;13.316;2023-01-28T06:37:30;3.30;99.90
10660;DHT22;5378;53.206;13.316;2023-01-28T06:40:18;3.20;99.90
10660;DHT22;5378;53.206;13.316;2023-01-28T06:43:07;3.30;99.90
10660;DHT22;5378;53.206;13.316;2023-01-28T06:45:54;3.30;99.90
10660;DHT22;5378;53.206;13.316;2023-01-28T06:48:41;3.40;99.90
10660;DHT22;5378;53.206;13.316;2023-01-28T06:51:29;3.30;99.90
10660;DHT22;5378;53.206;13.316;2023-01-28T06:54:16;3.30;99.90
10660;DHT22;5378;53.206;13.316;2023-01-28T06:57:03;3.20;99.90
10660;DHT22;5378;53.206;13.316;2023-01-28T06:59:52;3.30;99.90
10660;DHT22;5378;53.206;13.316;2023-01-28T07:02:39;3.30;99.90
10660;DHT22;5378;53.206;13.316;2023-01-28T07:05:26;3.30;99.90
10660;DHT22;5378;53.206;13.316;2023-01-28T07:08:13;3.30;99.90
10660;DHT22;5378;53.206;13.316;2023-01-28T07:11:00;3.20;99.90
10660;DHT22;5378;53.206;13.316;2023-01-28T07:13:48;3.20;99.90
10660;DHT22;5378;53.206;13.316;2023-01-28T07:16:37;3.10;99.90
10660;DHT22;5378;53.206;13.316;2023-01-28T07:19:24;3.10;99.90
10660;DHT22;5378;53.206;13.316;2023-01-28T07:22:11;2.90;99.90
10660;DHT22;5378;53.206;13.316;2023-01-28T07:24:58;3.00;99.90
10660;DHT22;5378;53.206;13.316;2023-01-28T07:27:47;3.00;99.90
10660;DHT22;5378;53.206;13.316;2023-01-28T07:30:34;3.10;99.90
10660;DHT22;5378;53.206;13.316;2023-01-28T07:33:23;3.10;99.90
10660;DHT22;5378;53.206;13.316;2023-01-28T07:36:10;3.20;99.90
10660;DHT22;5378;53.206;13.316;2023-01-28T07:38:57;3.20;99.90
10660;DHT22;5378;53.206;13.316;2023-01-28T07:41:44;3.30;99.90
10660;DHT22;5378;53.206;13.316;2023-01-28T07:44:48;3.20;99.90
10660;DHT22;5378;53.206;13.316;2023-01-28T07:47:35;3.30;99.90
10660;DHT22;5378;53.206;13.316;2023-01-28T07:50:25;3.30;99.90
10660;DHT22;5378;53.206;13.316;2023-01-28T07:53:13;3.30;99.90
10660;DHT22;5378;53.206;13.316;2023-01-28T07:56:01;3.30;99.90
10660;DHT22;5378;53.206;13.316;2023-01-28T07:58:49;3.40;99.90
10660;DHT22;5378;53.206;13.316;2023-01-28T08:01:38;3.40;99.90
10660;DHT22;5378;53.206;13.316;2023-01-28T08:04:25;3.40;99.90
10660;DHT22;5378;53.206;13.316;2023-01-28T08:07:13;3.40;99.90
10660;DHT22;5378;53.206;13.316;2023-01-28T08:10:00;3.40;99.90
10660;DHT22;5378;53.206;13.316;2023-01-28T08:12:51;3.50;99.90
10660;DHT22;5378;53.206;13.316;2023-01-28T08:15:39;3.50;99.90
10660;DHT22;5378;53.206;13.316;2023-01-28T08:18:27;3.60;99.90
10660;DHT22;5378;53.206;13.316;2023-01-28T08:21:14;3.60;99.90
10660;DHT22;5378;53.206;13.316;2023-01-28T08:24:03;3.60;99.90
10660;DHT22;5378;53.206;13.316;2023-01-28T08:26:50;3.60;99.90
10660;DHT22;5378;53.206;13.316;2023-01-28T08:29:37;3.60;99.90
10660;DHT22;5378;53.206;13.316;2023-01-28T08:32:24;3.60;99.90
10660;DHT22;5378;53.206;13.316;2023-01-28T08:35:11;3.60;99.90
10660;DHT22;5378;53.206;13.316;2023-01-28T08:37:59;3.70;99.90
10660;DHT22;5378;53.206;13.316;2023-01-28T08:40:48;3.70;99.90
10660;DHT22;5378;53.206;13.316;2023-01-28T08:43:38;3.70;99.90
10660;DHT22;5378;53.206;13.316;2023-01-28T08:46:25;3.90;99.90
10660;DHT22;5378;53.206;13.316;2023-01-28T08:49:12;3.80;99.90
10660;DHT22;5378;53.206;13.316;2023-01-28T08:52:00;3.80;99.90
10660;DHT22;5378;53.206;13.316;2023-01-28T08:54:47;3.90;99.90
10660;DHT22;5378;53.206;13.316;2023-01-28T08:57:35;3.90;99.90
10660;DHT22;5378;53.206;13.316;2023-01-28T09:00:23;3.90;99.90
10660;DHT22;5378;53.206;13.316;2023-01-28T09:03:10;3.90;99.90
10660;DHT22;5378;53.206;13.316;2023-01-28T09:05:59;3.90;99.90
10660;DHT22;5378;53.206;13.316;2023-01-28T09:08:46;3.90;99.90
10660;DHT22;5378;53.206;13.316;2023-01-28T09:11:33;4.00;99.90
10660;DHT22;5378;53.206;13.316;2023-01-28T09:14:22;4.00;99.90
10660;DHT22;5378;53.206;13.316;2023-01-28T09:17:09;4.00;99.90
10660;DHT22;5378;53.206;13.316;2023-01-28T09:19:56;4.00;99.90
10660;DHT22;5378;53.206;13.316;2023-01-28T09:22:43;4.00;99.90
10660;DHT22;5378;53.206;13.316;2023-01-28T09:25:30;4.00;99.90
10660;DHT22;5378;53.206;13.316;2023-01-28T09:28:18;4.10;99.90
10660;DHT22;5378;53.206;13.316;2023-01-28T09:31:08;4.10;99.90
10660;DHT22;5378;53.206;13.316;2023-01-28T09:33:55;4.20;99.90
10660;DHT22;5378;53.206;13.316;2023-01-28T09:36:43;4.20;99.90
10660;DHT22;5378;53.206;13.316;2023-01-28T09:39:30;4.20;99.90
10660;DHT22;5378;53.206;13.316;2023-01-28T09:42:31;4.20;99.90
10660;DHT22;5378;53.206;13.316;2023-01-28T09:45:26;4.20;99.90
10660;DHT22;5378;53.206;13.316;2023-01-28T09:48:18;4.30;99.90
10660;DHT22;5378;53.206;13.316;2023-01-28T09:51:09;4.30;99.90
10660;DHT22;5378;53.206;13.316;2023-01-28T09:53:59;4.40;99.90
10660;DHT22;5378;53.206;13.316;2023-01-28T09:56:52;4.30;99.90
10660;DHT22;5378;53.206;13.316;2023-01-28T09:59:40;4.40;99.90
10660;DHT22;5378;53.206;13.316;2023-01-28T10:02:36;4.30;99.90
10660;DHT22;5378;53.206;13.316;2023-01-28T10:05:33;4.30;99.90
10660;DHT22;5378;53.206;13.316;2023-01-28T10:08:33;4.30;99.90
10660;DHT22;5378;53.206;13.316;2023-01-28T10:11:29;4.30;99.90
10660;DHT22;5378;53.206;13.316;2023-01-28T10:14:32;4.40;99.90
10660;DHT22;5378;53.206;13.316;2023-01-28T10:17:27;4.40;99.90
10660;DHT22;5378;53.206;13.316;2023-01-28T10:20:19;4.50;99.90
10660;DHT22;5378;53.206;13.316;2023-01-28T10:23:14;4.40;99.90
10660;DHT22;5378;53.206;13.316;2023-01-28T10:26:06;4.50;99.90
10660;DHT22;5378;53.206;13.316;2023-01-28T10:28:59;4.50;99.90
10660;DHT22;5378;53.206;13.316;2023-01-28T10:31:53;4.50;99.90
10660;DHT22;5378;53.206;13.316;2023-01-28T10:34:41;4.50;99.90
10660;DHT22;5378;53.206;13.316;2023-01-28T10:37:33;4.40;99.90
10660;DHT22;5378;53.206;13.316;2023-01-28T10:40:22;4.50;99.90
10660;DHT22;5378;53.206;13.316;2023-01-28T10:43:09;4.40;99.90
10660;DHT22;5378;53.206;13.316;2023-01-28T10:46:00;4.60;99.90
10660;DHT22;5378;53.206;13.316;2023-01-28T10:48:55;4.60;99.90
10660;DHT22;5378;53.206;13.316;2023-01-28T10:51:45;4.60;99.90
10660;DHT22;5378;53.206;13.316;2023-01-28T10:54:32;4.50;99.90
10660;DHT22;5378;53.206;13.316;2023-01-28T10:57:21;4.40;99.90
10660;DHT22;5378;53.206;13.316;2023-01-28T11:00:16;4.40;99.90
10660;DHT22;5378;53.206;13.316;2023-01-28T11:03:17;4.40;99.90
10660;DHT22;5378;53.206;13.316;2023-01-28T11:06:04;4.10;99.90
10660;DHT22;5378;53.206;13.316;2023-01-28T11:08:52;4.10;99.90
10660;DHT22;5378;53.206;13.316;2023-01-28T11:11:39;4.30;99.90
10660;DHT22;5378;53.206;13.316;2023-01-28T11:14:27;4.40;99.90
10660;DHT22;5378;53.206;13.316;2023-01-28T11:17:15;4.50;99.90
10660;DHT22;5378;53.206;13.316;2023-01-28T11:20:09;4.50;99.90
10660;DHT22;5378;53.206;13.316;2023-01-28T11:22:58;4.60;99.90
10660;DHT22;5378;53.206;13.316;2023-01-28T11:25:45;4.70;99.90
10660;DHT22;5378;53.206;13.316;2023-01-28T11:28:33;4.70;99.90
10660;DHT22;5378;53.206;13.316;2023-01-28T11:31:22;4.80;99.90
10660;DHT22;5378;53.206;13.316;2023-01-28T11:34:15;4.80;99.90
10660;DHT22;5378;53.206;13.316;2023-01-28T11:37:04;4.80;99.90
10660;DHT22;5378;53.206;13.316;2023-01-28T11:40:03;4.80;99.90
10660;DHT22;5378;53.206;13.316;2023-01-28T11:42:51;4.70;99.90
10660;DHT22;5378;53.206;13.316;2023-01-28T11:45:47;4.70;99.90
10660;DHT22;5378;53.206;13.316;2023-01-28T11:48:43;4.70;99.90
10660;DHT22;5378;53.206;13.316;2023-01-28T11:51:41;4.60;99.90
10660;DHT22;5378;53.206;13.316;2023-01-28T11:54:40;4.70;99.90
10660;DHT22;5378;53.206;13.316;2023-01-28T11:57:37;4.70;99.90
10660;DHT22;5378;53.206;13.316;2023-01-28T12:00:36;4.70;99.90
10660;DHT22;5378;53.206;13.316;2023-01-28T12:03:40;4.60;99.90
10660;DHT22;5378;53.206;13.316;2023-01-28T12:06:39;4.50;99.90
10660;DHT22;5378;53.206;13.316;2023-01-28T12:09:33;4.60;99.90
10660;DHT22;5378;53.206;13.316;2023-01-28T12:12:37;4.60;99.90
10660;DHT22;5378;53.206;13.316;2023-01-28T12:16:02;4.80;99.90
10660;DHT22;5378;53.206;13.316;2023-01-28T12:19:06;4.80;99.90
10660;DHT22;5378;53.206;13.316;2023-01-28T12:22:13;4.80;99.90
10660;DHT22;5378;53.206;13.316;2023-01-28T12:25:14;4.80;99.90
10660;DHT22;5378;53.206;13.316;2023-01-28T12:28:12;5.00;99.90
10660;DHT22;5378;53.206;13.316;2023-01-28T12:31:13;5.00;99.90
10660;DHT22;5378;53.206;13.316;2023-01-28T12:34:37;5.10;99.90
10660;DHT22;5378;53.206;13.316;2023-01-28T12:37:38;4.90;99.90
10660;DHT22;5378;53.206;13.316;2023-01-28T12:40:48;5.00;99.90
10660;DHT22;5378;53.206;13.316;2023-01-28T12:43:44;5.00;99.90
10660;DHT22;5378;53.206;13.316;2023-01-28T12:46:39;5.10;99.90
10660;DHT22;5378;53.206;13.316;2023-01-28T12:49:31;5.20;99.90
10660;DHT22;5378;53.206;13.316;2023-01-28T12:52:24;5.30;99.90
10660;DHT22;5378;53.206;13.316;2023-01-28T12:55:14;5.40;99.90
10660;DHT22;5378;53.206;13.316;2023-01-28T12:58:02;5.50;99.90
10660;DHT22;5378;53.206;13.316;2023-01-28T13:00:56;5.50;99.90
10660;DHT22;5378;53.206;13.316;2023-01-28T13:03:50;5.40;99.90
10660;DHT22;5378;53.206;13.316;2023-01-28T13:06:42;5.30;99.90
10660;DHT22;5378;53.206;13.316;2023-01-28T13:09:33;4.90;99.90
10660;DHT22;5378;53.206;13.316;2023-01-28T13:12:21;4.80;99.90
10660;DHT22;5378;53.206;13.316;2023-01-28T13:15:11;4.70;99.90
10660;DHT22;5378;53.206;13.316;2023-01-28T13:18:00;4.60;99.90
10660;DHT22;5378;53.206;13.316;2023-01-28T13:20:49;4.40;99.90
10660;DHT22;5378;53.206;13.316;2023-01-28T13:23:41;4.20;99.90
10660;DHT22;5378;53.206;13.316;2023-01-28T13:26:36;4.10;99.90
10660;DHT22;5378;53.206;13.316;2023-01-28T13:29:29;4.00;99.90
10660;DHT22;5378;53.206;13.316;2023-01-28T13:32:28;3.90;99.90
10660;DHT22;5378;53.206;13.316;2023-01-28T13:35:28;3.80;99.90
10660;DHT22;5378;53.206;13.316;2023-01-28T13:38:18;3.80;99.90
10660;DHT22;5378;53.206;13.316;2023-01-28T13:41:07;3.80;99.90
10660;DHT22;5378;53.206;13.316;2023-01-28T13:43:55;3.80;99.90
10660;DHT22;5378;53.206;13.316;2023-01-28T13:46:43;3.80;99.90
10660;DHT22;5378;53.206;13.316;2023-01-28T13:49:33;3.80;99.90
10660;DHT22;5378;53.206;13.316;2023-01-28T13:52:26;3.90;99.90
10660;DHT22;5378;53.206;13.316;2023-01-28T13:55:18;4.00;99.90
10660;DHT22;5378;53.206;13.316;2023-01-28T13:59:03;4.00;99.90
10660;DHT22;5378;53.206;13.316;2023-01-28T14:02:30;4.10;99.90
10660;DHT22;5378;53.206;13.316;2023-01-28T14:08:48;4.10;99.90
10660;DHT22;5378;53.206;13.316;2023-01-28T14:12:14;4.00;99.90
10660;DHT22;5378;53.206;13.316;2023-01-28T14:15:30;3.90;99.90
10660;DHT22;5378;53.206;13.316;2023-01-28T14:18:25;3.80;99.90
10660;DHT22;5378;53.206;13.316;2023-01-28T14:21:15;3.90;99.90
10660;DHT22;5378;53.206;13.316;2023-01-28T14:24:03;3.90;99.90
10660;DHT22;5378;53.206;13.316;2023-01-28T14:26:56;3.80;99.90
10660;DHT22;5378;53.206;13.316;2023-01-28T14:29:52;3.80;99.90
10660;DHT22;5378;53.206;13.316;2023-01-28T14:32:46;3.70;99.90
10660;DHT22;5378;53.206;13.316;2023-01-28T14:35:37;3.60;99.90
10660;DHT22;5378;53.206;13.316;2023-01-28T14:38:24;3.40;99.90
10660;DHT22;5378;53.206;13.316;2023-01-28T14:41:20;3.30;99.90
10660;DHT22;5378;53.206;13.316;2023-01-28T14:44:08;3.10;99.90
10660;DHT22;5378;53.206;13.316;2023-01-28T14:47:13;3.10;99.90
10660;DHT22;5378;53.206;13.316;2023-01-28T14:50:28;3.00;99.90
10660;DHT22;5378;53.206;13.316;2023-01-28T14:53:52;3.00;99.90
10660;DHT22;5378;53.206;13.316;2023-01-28T14:56:53;2.90;99.90
10660;DHT22;5378;53.206;13.316;2023-01-28T14:59:47;2.80;99.90
10660;DHT22;5378;53.206;13.316;2023-01-28T15:02:42;2.80;99.90
10660;DHT22;5378;53.206;13.316;2023-01-28T15:05:30;2.60;99.90
10660;DHT22;5378;53.206;13.316;2023-01-28T15:08:20;2.50;99.90
10660;DHT22;5378;53.206;13.316;2023-01-28T15:11:11;2.40;99.90
10660;DHT22;5378;53.206;13.316;2023-01-28T15:13:59;2.40;99.90
10660;DHT22;5378;53.206;13.316;2023-01-28T15:16:47;2.30;99.90
10660;DHT22;5378;53.206;13.316;2023-01-28T15:19:36;2.20;99.90
10660;DHT22;5378;53.206;13.316;2023-01-28T15:22:26;2.10;99.90
10660;DHT22;5378;53.206;13.316;2023-01-28T15:25:16;2.00;99.90
10660;DHT22;5378;53.206;13.316;2023-01-28T15:28:04;2.00;99.90
10660;DHT22;5378;53.206;13.316;2023-01-28T15:30:52;2.00;99.90
10660;DHT22;5378;53.206;13.316;2023-01-28T15:33:39;1.90;99.90
10660;DHT22;5378;53.206;13.316;2023-01-28T15:36:26;1.90;99.90
10660;DHT22;5378;53.206;13.316;2023-01-28T15:39:17;1.80;99.90
10660;DHT22;5378;53.206;13.316;2023-01-28T15:42:06;1.70;99.90
10660;DHT22;5378;53.206;13.316;2023-01-28T15:44:54;1.60;99.90
10660;DHT22;5378;53.206;13.316;2023-01-28T15:47:43;1.50;99.90
10660;DHT22;5378;53.206;13.316;2023-01-28T15:50:30;1.50;99.90
10660;DHT22;5378;53.206;13.316;2023-01-28T15:53:18;1.30;99.90
10660;DHT22;5378;53.206;13.316;2023-01-28T15:56:09;1.30;99.90
10660;DHT22;5378;53.206;13.316;2023-01-28T15:59:08;1.20;99.90
10660;DHT22;5378;53.206;13.316;2023-01-28T16:02:16;1.20;99.90
10660;DHT22;5378;53.206;13.316;2023-01-28T16:05:05;1.20;99.90
10660;DHT22;5378;53.206;13.316;2023-01-28T16:07:54;1.20;99.90
10660;DHT22;5378;53.206;13.316;2023-01-28T16:10:41;1.20;99.90
10660;DHT22;5378;53.206;13.316;2023-01-28T16:13:31;1.10;99.90
10660;DHT22;5378;53.206;13.316;2023-01-28T16:16:26;1.00;99.90
10660;DHT22;5378;53.206;13.316;2023-01-28T16:19:24;1.00;99.90
10660;DHT22;5378;53.206;13.316;2023-01-28T16:22:18;0.90;99.90
10660;DHT22;5378;53.206;13.316;2023-01-28T16:25:25;0.90;99.90
10660;DHT22;5378;53.206;13.316;2023-01-28T16:28:17;0.80;99.90
10660;DHT22;5378;53.206;13.316;2023-01-28T16:31:10;0.90;99.90
10660;DHT22;5378;53.206;13.316;2023-01-28T16:33:57;0.70;99.90
10660;DHT22;5378;53.206;13.316;2023-01-28T16:36:44;0.80;99.90
10660;DHT22;5378;53.206;13.316;2023-01-28T16:39:31;0.60;99.90
10660;DHT22;5378;53.206;13.316;2023-01-28T16:42:18;0.60;99.90
10660;DHT22;5378;53.206;13.316;2023-01-28T16:45:09;0.60;99.90
10660;DHT22;5378;53.206;13.316;2023-01-28T16:48:01;0.60;99.90
10660;DHT22;5378;53.206;13.316;2023-01-28T16:50:48;0.60;99.90
10660;DHT22;5378;53.206;13.316;2023-01-28T16:53:35;0.60;99.90
10660;DHT22;5378;53.206;13.316;2023-01-28T16:56:26;0.50;99.90
10660;DHT22;5378;53.206;13.316;2023-01-28T16:59:31;0.60;99.90
10660;DHT22;5378;53.206;13.316;2023-01-28T17:02:18;0.60;99.90
10660;DHT22;5378;53.206;13.316;2023-01-28T17:05:07;0.70;99.90
10660;DHT22;5378;53.206;13.316;2023-01-28T17:07:56;0.70;99.90
10660;DHT22;5378;53.206;13.316;2023-01-28T17:10:44;0.70;99.90
10660;DHT22;5378;53.206;13.316;2023-01-28T17:13:31;0.80;99.90
10660;DHT22;5378;53.206;13.316;2023-01-28T17:16:18;0.70;99.90
10660;DHT22;5378;53.206;13.316;2023-01-28T17:19:05;0.70;99.90
10660;DHT22;5378;53.206;13.316;2023-01-28T17:21:54;0.70;99.90
10660;DHT22;5378;53.206;13.316;2023-01-28T17:24:41;0.70;99.90
10660;DHT22;5378;53.206;13.316;2023-01-28T17:27:28;0.70;99.90
10660;DHT22;5378;53.206;13.316;2023-01-28T17:30:17;0.70;99.90
10660;DHT22;5378;53.206;13.316;2023-01-28T17:33:06;0.80;99.90
10660;DHT22;5378;53.206;13.316;2023-01-28T17:35:53;0.90;99.90
10660;DHT22;5378;53.206;13.316;2023-01-28T17:38:44;0.80;99.90
10660;DHT22;5378;53.206;13.316;2023-01-28T17:41:31;1.00;99.90
10660;DHT22;5378;53.206;13.316;2023-01-28T17:44:19;1.10;99.90
10660;DHT22;5378;53.206;13.316;2023-01-28T17:47:06;1.10;99.90
10660;DHT22;5378;53.206;13.316;2023-01-28T17:49:53;1.10;99.90
10660;DHT22;5378;53.206;13.316;2023-01-28T17:52:41;1.10;99.90
10660;DHT22;5378;53.206;13.316;2023-01-28T17:55:33;1.10;99.90
10660;DHT22;5378;53.206;13.316;2023-01-28T17:58:20;1.10;99.90
10660;DHT22;5378;53.206;13.316;2023-01-28T18:01:07;1.20;99.90
10660;DHT22;5378;53.206;13.316;2023-01-28T18:03:56;1.20;99.90
10660;DHT22;5378;53.206;13.316;2023-01-28T18:06:44;1.10;99.90
10660;DHT22;5378;53.206;13.316;2023-01-28T18:09:33;1.00;99.90
10660;DHT22;5378;53.206;13.316;2023-01-28T18:12:22;0.90;99.90
10660;DHT22;5378;53.206;13.316;2023-01-28T18:15:10;0.90;99.90
10660;DHT22;5378;53.206;13.316;2023-01-28T18:17:57;0.80;99.90
10660;DHT22;5378;53.206;13.316;2023-01-28T18:20:44;0.70;99.90
10660;DHT22;5378;53.206;13.316;2023-01-28T18:23:32;0.60;99.90
10660;DHT22;5378;53.206;13.316;2023-01-28T18:26:19;0.60;99.90
10660;DHT22;5378;53.206;13.316;2023-01-28T18:29:08;0.60;99.90